Provincetown, MA

12:52 AM EDT on April 19, 2015 (GMT -0400)
Provincetown Municipal | | Change Station
CLOSE
Current Station
Airport
Location: Provincetown,
Elevation: 7 ft
Nearby Weather Stations

Elev 7 ft 42.07 °N, 70.22 °W | Updated 17 minutes ago

Clear
Clear
39 °F
Feels Like 35 °F
N
6
Wind Variable Wind from NW

Today
High -- | Low -- °F
--% Chance of Precip.
Yesterday
High -- | Low -- °F
Precip. -- in
5:54 AM 7:26 PM
New Moon, 0% visible
Pressure 30.08 in
Visibility 10.0 miles
Clouds Clear
Windchill 35 °F
Dew Point 37 °F
Humidity 93%
Rainfall 0.00 in
Snow Depth Not available.
UV 0 out of 12
Pollen 10.80 out of 12
Air Quality Not available.
Flu Activity Widespread
METAR KPVC 190435Z 31005KT 10SM CLR 04/03 A3008 RMK AO1

More Conditions Fewer Conditions

Pressure 30.08 in
Visibility 10.0 miles
Clouds Clear
Windchill 35 °F
Dew Point 37 °F
Humidity 93%
Rainfall 0.00 in
Snow Depth Not available.
UV 0 out of 12
Pollen 10.80 out of 12
Air Quality Not available.
Flu Activity Widespread
METAR KPVC 190435Z 31005KT 10SM CLR 04/03 A3008 RMK AO1

More Conditions Fewer Conditions

10-Day Weather Forecast

Almanac

Astronomy

Apr. 19, 2015 Rise Set
Actual Time
Civil Twilight
Nautical Twilight
Astronomical Twilight
Moon
Length of Visible Light
Length of Day
Tomorrow will be .
, % of the Moon is Illuminated

Today's Extremes

State Highs State Lows

Community

WunderPhotos

Upload Photos

1,814,723 photos uploaded!

WunderBlogs® & News

Nearby

Air Quality

  Air Quality AQ Index Pollutant
Not available.

Snow Depth

Station Depth Elevation

Earthquake Activity

City Distance Mag. Time & Date
Minimum magnitude displayed is 2.5.

Coastal Water Temperatures

Place Temperature

Stations

Nearby Weather Stations

Station Location Temp. Windchill Dew Point Humidity Wind Precip. Elev Updated Type